sensor_id;sensor_type;location;lat;lon;timestamp;pressure;altitude;pressure_sealevel;temperature;humidity
51526;BME280;37611;51.794;21.590;2023-04-19T00:03:29;100200.86;;;9.92;94.60
51526;BME280;37611;51.794;21.590;2023-04-19T00:07:31;100192.21;;;9.87;95.23
51526;BME280;37611;51.794;21.590;2023-04-19T00:11:33;100184.15;;;9.78;96.20
51526;BME280;37611;51.794;21.590;2023-04-19T00:15:36;100181.87;;;9.72;96.34
51526;BME280;37611;51.794;21.590;2023-04-19T00:19:38;100178.57;;;9.66;97.01
51526;BME280;37611;51.794;21.590;2023-04-19T00:23:40;100173.05;;;9.59;97.01
51526;BME280;37611;51.794;21.590;2023-04-19T00:27:41;100170.81;;;9.55;97.92
51526;BME280;37611;51.794;21.590;2023-04-19T00:31:43;100163.33;;;9.48;98.96
51526;BME280;37611;51.794;21.590;2023-04-19T00:35:45;100163.91;;;9.41;99.30
51526;BME280;37611;51.794;21.590;2023-04-19T00:39:46;100162.35;;;9.35;99.72
51526;BME280;37611;51.794;21.590;2023-04-19T00:43:48;100157.34;;;9.31;99.96
51526;BME280;37611;51.794;21.590;2023-04-19T00:47:50;100150.92;;;9.26;100.00
51526;BME280;37611;51.794;21.590;2023-04-19T00:51:52;100145.31;;;9.21;100.00
51526;BME280;37611;51.794;21.590;2023-04-19T00:55:56;100142.83;;;9.14;100.00
51526;BME280;37611;51.794;21.590;2023-04-19T01:00:01;100138.82;;;9.06;100.00
51526;BME280;37611;51.794;21.590;2023-04-19T01:04:07;100137.91;;;9.02;100.00
51526;BME280;37611;51.794;21.590;2023-04-19T01:08:09;100131.07;;;8.97;100.00
51526;BME280;37611;51.794;21.590;2023-04-19T01:12:10;100123.63;;;8.93;100.00
51526;BME280;37611;51.794;21.590;2023-04-19T01:16:12;100115.79;;;8.84;100.00
51526;BME280;37611;51.794;21.590;2023-04-19T01:20:14;100112.42;;;8.77;100.00
51526;BME280;37611;51.794;21.590;2023-04-19T01:24:15;100109.02;;;8.70;100.00
51526;BME280;37611;51.794;21.590;2023-04-19T01:28:17;100107.73;;;8.63;100.00
51526;BME280;37611;51.794;21.590;2023-04-19T01:32:19;100103.45;;;8.58;100.00
51526;BME280;37611;51.794;21.590;2023-04-19T01:36:21;100100.50;;;8.54;100.00
51526;BME280;37611;51.794;21.590;2023-04-19T01:40:24;100098.27;;;8.50;100.00
51526;BME280;37611;51.794;21.590;2023-04-19T01:44:26;100098.07;;;8.44;100.00
51526;BME280;37611;51.794;21.590;2023-04-19T01:48:27;100097.98;;;8.38;100.00
51526;BME280;37611;51.794;21.590;2023-04-19T01:52:29;100097.79;;;8.35;100.00
51526;BME280;37611;51.794;21.590;2023-04-19T01:56:31;100099.91;;;8.31;100.00
51526;BME280;37611;51.794;21.590;2023-04-19T02:00:33;100096.73;;;8.23;100.00
51526;BME280;37611;51.794;21.590;2023-04-19T02:04:35;100097.85;;;8.15;100.00
51526;BME280;37611;51.794;21.590;2023-04-19T02:08:38;100095.85;;;8.08;100.00
51526;BME280;37611;51.794;21.590;2023-04-19T02:12:40;100094.73;;;8.06;100.00
51526;BME280;37611;51.794;21.590;2023-04-19T02:16:43;100087.04;;;8.03;100.00
51526;BME280;37611;51.794;21.590;2023-04-19T02:20:44;100084.69;;;7.98;100.00
51526;BME280;37611;51.794;21.590;2023-04-19T02:24:51;100079.96;;;7.94;100.00
51526;BME280;37611;51.794;21.590;2023-04-19T02:28:52;100070.17;;;7.88;100.00
51526;BME280;37611;51.794;21.590;2023-04-19T02:32:54;100070.37;;;7.84;100.00
51526;BME280;37611;51.794;21.590;2023-04-19T02:36:56;100061.39;;;7.77;100.00
51526;BME280;37611;51.794;21.590;2023-04-19T02:40:58;100060.79;;;7.70;100.00
51526;BME280;37611;51.794;21.590;2023-04-19T02:45:02;100058.19;;;7.65;100.00
51526;BME280;37611;51.794;21.590;2023-04-19T02:49:04;100058.79;;;7.65;100.00
51526;BME280;37611;51.794;21.590;2023-04-19T02:53:05;100052.23;;;7.66;100.00
51526;BME280;37611;51.794;21.590;2023-04-19T02:57:07;100041.56;;;7.66;100.00
51526;BME280;37611;51.794;21.590;2023-04-19T03:01:09;100042.77;;;7.62;100.00
51526;BME280;37611;51.794;21.590;2023-04-19T03:05:11;100040.18;;;7.60;100.00
51526;BME280;37611;51.794;21.590;2023-04-19T03:09:13;100034.80;;;7.60;100.00
51526;BME280;37611;51.794;21.590;2023-04-19T03:13:14;100033.64;;;7.57;100.00
51526;BME280;37611;51.794;21.590;2023-04-19T03:17:16;100033.70;;;7.52;100.00
51526;BME280;37611;51.794;21.590;2023-04-19T03:21:18;100031.41;;;7.49;100.00
51526;BME280;37611;51.794;21.590;2023-04-19T03:25:19;100031.46;;;7.44;100.00
51526;BME280;37611;51.794;21.590;2023-04-19T03:29:21;100027.30;;;7.40;100.00
51526;BME280;37611;51.794;21.590;2023-04-19T03:33:23;100022.66;;;7.37;100.00
51526;BME280;37611;51.794;21.590;2023-04-19T03:37:24;100023.20;;;7.32;100.00
51526;BME280;37611;51.794;21.590;2023-04-19T03:41:26;100021.38;;;7.29;100.00
51526;BME280;37611;51.794;21.590;2023-04-19T03:45:29;100021.55;;;7.27;100.00
51526;BME280;37611;51.794;21.590;2023-04-19T03:49:31;100024.63;;;7.26;100.00
51526;BME280;37611;51.794;21.590;2023-04-19T03:53:33;100024.48;;;7.26;100.00
51526;BME280;37611;51.794;21.590;2023-04-19T03:57:34;100024.13;;;7.28;100.00
51526;BME280;37611;51.794;21.590;2023-04-19T04:01:36;100019.34;;;7.29;100.00
51526;BME280;37611;51.794;21.590;2023-04-19T04:05:42;100020.70;;;7.31;100.00
51526;BME280;37611;51.794;21.590;2023-04-19T04:09:44;100025.65;;;7.34;100.00
51526;BME280;37611;51.794;21.590;2023-04-19T04:13:47;100023.05;;;7.38;100.00
51526;BME280;37611;51.794;21.590;2023-04-19T04:17:50;100019.16;;;7.41;100.00
51526;BME280;37611;51.794;21.590;2023-04-19T04:21:52;100015.27;;;7.44;100.00
51526;BME280;37611;51.794;21.590;2023-04-19T04:25:58;100012.67;;;7.46;100.00
51526;BME280;37611;51.794;21.590;2023-04-19T04:30:05;100013.20;;;7.50;100.00
51526;BME280;37611;51.794;21.590;2023-04-19T04:34:07;100012.39;;;7.53;100.00
51526;BME280;37611;51.794;21.590;2023-04-19T04:38:09;100015.15;;;7.57;100.00
51526;BME280;37611;51.794;21.590;2023-04-19T04:42:11;100020.85;;;7.60;100.00
51526;BME280;37611;51.794;21.590;2023-04-19T04:46:13;100019.23;;;7.62;100.00
51526;BME280;37611;51.794;21.590;2023-04-19T04:50:15;100016.93;;;7.69;100.00
51526;BME280;37611;51.794;21.590;2023-04-19T04:54:17;100014.59;;;7.74;100.00
51526;BME280;37611;51.794;21.590;2023-04-19T04:58:19;100016.25;;;7.79;100.00
51526;BME280;37611;51.794;21.590;2023-04-19T05:02:21;100009.71;;;7.81;100.00
51526;BME280;37611;51.794;21.590;2023-04-19T05:06:24;100010.73;;;7.86;100.00
51526;BME280;37611;51.794;21.590;2023-04-19T05:10:26;100008.69;;;7.90;100.00
51526;BME280;37611;51.794;21.590;2023-04-19T05:14:28;100007.08;;;7.96;100.00
51526;BME280;37611;51.794;21.590;2023-04-19T05:18:30;100007.65;;;8.01;100.00
51526;BME280;37611;51.794;21.590;2023-04-19T05:22:31;100008.98;;;8.06;100.00
51526;BME280;37611;51.794;21.590;2023-04-19T05:26:33;100013.10;;;8.11;100.00
51526;BME280;37611;51.794;21.590;2023-04-19T05:30:35;100008.30;;;8.12;100.00
51526;BME280;37611;51.794;21.590;2023-04-19T05:34:37;100012.52;;;8.13;100.00
51526;BME280;37611;51.794;21.590;2023-04-19T05:38:38;100015.96;;;8.14;100.00
51526;BME280;37611;51.794;21.590;2023-04-19T05:42:40;100012.69;;;8.15;100.00
51526;BME280;37611;51.794;21.590;2023-04-19T05:46:42;100011.48;;;8.15;100.00
51526;BME280;37611;51.794;21.590;2023-04-19T05:50:43;100009.98;;;8.14;100.00
51526;BME280;37611;51.794;21.590;2023-04-19T05:54:45;100005.61;;;8.15;100.00
51526;BME280;37611;51.794;21.590;2023-04-19T05:58:47;100010.56;;;8.12;100.00
51526;BME280;37611;51.794;21.590;2023-04-19T06:02:48;100011.38;;;8.06;100.00
51526;BME280;37611;51.794;21.590;2023-04-19T06:06:50;100011.42;;;8.04;100.00
51526;BME280;37611;51.794;21.590;2023-04-19T06:10:52;100017.67;;;8.02;100.00
51526;BME280;37611;51.794;21.590;2023-04-19T06:14:55;100015.28;;;7.98;100.00
51526;BME280;37611;51.794;21.590;2023-04-19T06:18:57;100018.88;;;8.06;100.00
51526;BME280;37611;51.794;21.590;2023-04-19T06:22:58;100020.12;;;8.10;100.00
51526;BME280;37611;51.794;21.590;2023-04-19T06:27:00;100018.48;;;8.19;100.00
51526;BME280;37611;51.794;21.590;2023-04-19T06:31:03;100025.01;;;8.25;100.00
51526;BME280;37611;51.794;21.590;2023-04-19T06:35:05;100021.62;;;8.22;100.00
51526;BME280;37611;51.794;21.590;2023-04-19T06:39:07;100017.42;;;8.17;100.00
51526;BME280;37611;51.794;21.590;2023-04-19T06:43:10;100017.04;;;8.15;100.00
51526;BME280;37611;51.794;21.590;2023-04-19T06:47:12;100008.45;;;8.18;100.00
51526;BME280;37611;51.794;21.590;2023-04-19T06:51:13;100007.63;;;8.23;100.00
51526;BME280;37611;51.794;21.590;2023-04-19T06:55:15;100004.70;;;8.26;100.00
51526;BME280;37611;51.794;21.590;2023-04-19T06:59:18;100002.84;;;8.28;100.00
51526;BME280;37611;51.794;21.590;2023-04-19T07:03:21;100002.20;;;8.33;100.00
51526;BME280;37611;51.794;21.590;2023-04-19T07:07:22;99999.54;;;8.40;100.00
51526;BME280;37611;51.794;21.590;2023-04-19T07:11:24;100004.97;;;8.45;100.00
51526;BME280;37611;51.794;21.590;2023-04-19T07:15:26;100006.98;;;8.41;100.00
51526;BME280;37611;51.794;21.590;2023-04-19T07:19:28;100009.92;;;8.44;100.00
51526;BME280;37611;51.794;21.590;2023-04-19T07:23:30;100012.17;;;8.43;100.00
51526;BME280;37611;51.794;21.590;2023-04-19T07:27:32;100009.32;;;8.42;100.00
51526;BME280;37611;51.794;21.590;2023-04-19T07:31:33;100008.05;;;8.52;100.00
51526;BME280;37611;51.794;21.590;2023-04-19T07:35:38;100014.59;;;8.53;100.00
51526;BME280;37611;51.794;21.590;2023-04-19T07:39:39;100014.17;;;8.53;100.00
51526;BME280;37611;51.794;21.590;2023-04-19T07:43:41;100014.80;;;8.58;100.00
51526;BME280;37611;51.794;21.590;2023-04-19T07:47:43;100016.75;;;8.60;100.00
51526;BME280;37611;51.794;21.590;2023-04-19T07:51:45;100018.73;;;8.57;100.00
51526;BME280;37611;51.794;21.590;2023-04-19T07:55:46;100015.93;;;8.53;100.00
51526;BME280;37611;51.794;21.590;2023-04-19T07:59:48;100020.74;;;8.54;100.00
51526;BME280;37611;51.794;21.590;2023-04-19T08:03:50;100020.64;;;8.57;100.00
51526;BME280;37611;51.794;21.590;2023-04-19T08:07:52;100021.89;;;8.61;100.00
51526;BME280;37611;51.794;21.590;2023-04-19T08:11:53;100018.84;;;8.66;100.00
51526;BME280;37611;51.794;21.590;2023-04-19T08:15:55;100022.50;;;8.73;100.00
51526;BME280;37611;51.794;21.590;2023-04-19T08:19:57;100020.02;;;8.83;100.00
51526;BME280;37611;51.794;21.590;2023-04-19T08:23:59;100029.10;;;9.02;100.00
51526;BME280;37611;51.794;21.590;2023-04-19T08:28:02;100028.11;;;9.20;100.00
51526;BME280;37611;51.794;21.590;2023-04-19T08:32:05;100030.64;;;9.40;100.00
51526;BME280;37611;51.794;21.590;2023-04-19T08:36:07;100033.46;;;9.51;100.00
51526;BME280;37611;51.794;21.590;2023-04-19T08:40:09;100037.30;;;9.60;100.00
51526;BME280;37611;51.794;21.590;2023-04-19T08:44:12;100041.71;;;9.73;100.00
51526;BME280;37611;51.794;21.590;2023-04-19T08:48:16;100044.00;;;9.67;100.00
51526;BME280;37611;51.794;21.590;2023-04-19T08:52:18;100045.23;;;9.64;100.00
51526;BME280;37611;51.794;21.590;2023-04-19T08:56:21;100047.80;;;9.61;100.00
51526;BME280;37611;51.794;21.590;2023-04-19T09:00:24;100046.00;;;9.66;100.00
51526;BME280;37611;51.794;21.590;2023-04-19T09:04:26;100050.62;;;9.70;100.00
51526;BME280;37611;51.794;21.590;2023-04-19T09:08:29;100047.48;;;9.71;100.00
51526;BME280;37611;51.794;21.590;2023-04-19T09:12:31;100046.57;;;9.73;100.00
51526;BME280;37611;51.794;21.590;2023-04-19T09:16:35;100042.67;;;9.83;100.00
51526;BME280;37611;51.794;21.590;2023-04-19T09:20:43;100047.95;;;9.96;100.00
51526;BME280;37611;51.794;21.590;2023-04-19T09:24:45;100049.59;;;10.06;100.00
51526;BME280;37611;51.794;21.590;2023-04-19T09:32:58;100048.64;;;10.17;100.00
51526;BME280;37611;51.794;21.590;2023-04-19T09:37:13;100052.48;;;10.08;100.00
51526;BME280;37611;51.794;21.590;2023-04-19T09:41:15;100053.02;;;9.99;100.00
51526;BME280;37611;51.794;21.590;2023-04-19T09:45:18;100052.14;;;9.96;100.00
51526;BME280;37611;51.794;21.590;2023-04-19T09:49:23;100053.68;;;9.96;100.00
51526;BME280;37611;51.794;21.590;2023-04-19T09:53:26;100052.89;;;10.04;100.00
51526;BME280;37611;51.794;21.590;2023-04-19T09:57:30;100051.36;;;10.17;100.00
51526;BME280;37611;51.794;21.590;2023-04-19T10:01:39;100046.63;;;10.35;100.00
51526;BME280;37611;51.794;21.590;2023-04-19T10:05:44;100043.81;;;10.47;100.00
51526;BME280;37611;51.794;21.590;2023-04-19T10:09:48;100042.30;;;10.62;100.00
51526;BME280;37611;51.794;21.590;2023-04-19T10:14:21;100044.03;;;10.81;100.00
51526;BME280;37611;51.794;21.590;2023-04-19T10:18:24;100040.05;;;10.96;100.00
51526;BME280;37611;51.794;21.590;2023-04-19T10:22:26;100030.19;;;11.12;100.00
51526;BME280;37611;51.794;21.590;2023-04-19T10:26:28;100032.27;;;11.35;100.00
51526;BME280;37611;51.794;21.590;2023-04-19T10:30:30;100031.20;;;11.61;100.00
51526;BME280;37611;51.794;21.590;2023-04-19T10:34:39;100026.84;;;11.66;100.00
51526;BME280;37611;51.794;21.590;2023-04-19T10:38:43;100028.38;;;11.66;99.73
51526;BME280;37611;51.794;21.590;2023-04-19T10:47:11;100030.16;;;11.69;98.78
51526;BME280;37611;51.794;21.590;2023-04-19T10:51:15;100037.70;;;11.61;98.79
51526;BME280;37611;51.794;21.590;2023-04-19T10:55:17;100036.05;;;11.51;99.14
51526;BME280;37611;51.794;21.590;2023-04-19T10:59:20;100038.66;;;11.53;99.41
51526;BME280;37611;51.794;21.590;2023-04-19T11:03:50;100046.63;;;11.53;98.46
51526;BME280;37611;51.794;21.590;2023-04-19T11:07:52;100048.69;;;11.46;98.71
51526;BME280;37611;51.794;21.590;2023-04-19T11:11:58;100050.13;;;11.45;98.72
51526;BME280;37611;51.794;21.590;2023-04-19T11:16:07;100054.33;;;11.42;98.35
51526;BME280;37611;51.794;21.590;2023-04-19T11:20:09;100051.59;;;11.36;98.09
51526;BME280;37611;51.794;21.590;2023-04-19T11:24:12;100053.89;;;11.25;97.95
51526;BME280;37611;51.794;21.590;2023-04-19T11:28:16;100052.35;;;11.13;98.67
51526;BME280;37611;51.794;21.590;2023-04-19T11:32:20;100050.36;;;11.12;98.63
51526;BME280;37611;51.794;21.590;2023-04-19T11:36:22;100051.69;;;11.18;98.77
51526;BME280;37611;51.794;21.590;2023-04-19T11:40:24;100052.20;;;11.27;99.33
51526;BME280;37611;51.794;21.590;2023-04-19T11:44:26;100049.30;;;11.42;99.25
51526;BME280;37611;51.794;21.590;2023-04-19T11:48:28;100049.28;;;11.52;99.38
51526;BME280;37611;51.794;21.590;2023-04-19T11:52:34;100048.46;;;11.60;98.49
51526;BME280;37611;51.794;21.590;2023-04-19T11:56:35;100050.71;;;11.60;98.64
51526;BME280;37611;51.794;21.590;2023-04-19T12:00:37;100045.45;;;11.81;98.42
51526;BME280;37611;51.794;21.590;2023-04-19T12:04:39;100049.02;;;12.01;97.97
51526;BME280;37611;51.794;21.590;2023-04-19T12:08:44;100047.66;;;12.12;96.48
51526;BME280;37611;51.794;21.590;2023-04-19T12:12:47;100046.45;;;12.18;96.77
51526;BME280;37611;51.794;21.590;2023-04-19T12:21:04;100044.64;;;12.42;95.90
51526;BME280;37611;51.794;21.590;2023-04-19T12:25:07;100039.14;;;12.51;95.37
51526;BME280;37611;51.794;21.590;2023-04-19T12:29:09;100038.73;;;12.60;95.81
51526;BME280;37611;51.794;21.590;2023-04-19T12:33:11;100038.34;;;12.78;95.46
51526;BME280;37611;51.794;21.590;2023-04-19T12:37:12;100036.09;;;12.96;95.06
51526;BME280;37611;51.794;21.590;2023-04-19T12:41:14;100044.31;;;12.91;93.82
51526;BME280;37611;51.794;21.590;2023-04-19T12:45:16;100041.84;;;12.85;94.26
51526;BME280;37611;51.794;21.590;2023-04-19T12:49:18;100036.23;;;12.91;93.80
51526;BME280;37611;51.794;21.590;2023-04-19T12:53:21;100039.93;;;13.07;93.72
51526;BME280;37611;51.794;21.590;2023-04-19T12:57:24;100032.81;;;13.08;93.18
51526;BME280;37611;51.794;21.590;2023-04-19T13:01:26;100031.42;;;13.11;93.52
51526;BME280;37611;51.794;21.590;2023-04-19T13:05:28;100036.33;;;13.29;93.40
51526;BME280;37611;51.794;21.590;2023-04-19T13:09:29;100037.75;;;13.43;92.94
51526;BME280;37611;51.794;21.590;2023-04-19T13:13:31;100036.40;;;13.51;92.54
51526;BME280;37611;51.794;21.590;2023-04-19T13:17:35;100030.87;;;13.50;91.77
51526;BME280;37611;51.794;21.590;2023-04-19T13:21:38;100026.23;;;13.66;92.96
51526;BME280;37611;51.794;21.590;2023-04-19T13:25:40;100026.59;;;13.85;92.00
51526;BME280;37611;51.794;21.590;2023-04-19T13:29:41;100028.27;;;14.06;90.75
51526;BME280;37611;51.794;21.590;2023-04-19T13:33:43;100023.70;;;14.20;90.49
51526;BME280;37611;51.794;21.590;2023-04-19T13:37:45;100023.63;;;14.31;91.28
51526;BME280;37611;51.794;21.590;2023-04-19T13:41:48;100017.42;;;14.50;88.86
51526;BME280;37611;51.794;21.590;2023-04-19T13:45:49;100019.84;;;14.72;89.77
51526;BME280;37611;51.794;21.590;2023-04-19T13:49:51;100013.67;;;14.78;88.63
51526;BME280;37611;51.794;21.590;2023-04-19T13:53:53;100016.29;;;14.77;86.99
51526;BME280;37611;51.794;21.590;2023-04-19T13:57:55;100020.45;;;14.65;86.41
51526;BME280;37611;51.794;21.590;2023-04-19T14:01:56;100023.77;;;14.50;87.52
51526;BME280;37611;51.794;21.590;2023-04-19T14:05:58;100040.29;;;14.16;87.37
51526;BME280;37611;51.794;21.590;2023-04-19T14:10:00;100068.35;;;13.62;91.49
51526;BME280;37611;51.794;21.590;2023-04-19T14:14:01;100061.34;;;12.73;94.22
51526;BME280;37611;51.794;21.590;2023-04-19T14:18:03;100062.55;;;12.20;95.31
51526;BME280;37611;51.794;21.590;2023-04-19T14:22:05;100059.87;;;11.77;97.96
51526;BME280;37611;51.794;21.590;2023-04-19T14:26:07;100060.27;;;11.46;98.78
51526;BME280;37611;51.794;21.590;2023-04-19T14:30:09;100053.45;;;11.25;99.68
51526;BME280;37611;51.794;21.590;2023-04-19T14:34:11;100047.34;;;11.23;99.97
51526;BME280;37611;51.794;21.590;2023-04-19T14:38:12;100042.96;;;11.26;99.98
51526;BME280;37611;51.794;21.590;2023-04-19T14:42:14;100044.72;;;11.33;100.00
51526;BME280;37611;51.794;21.590;2023-04-19T14:46:16;100047.31;;;11.40;100.00
51526;BME280;37611;51.794;21.590;2023-04-19T14:50:18;100053.48;;;11.45;100.00
51526;BME280;37611;51.794;21.590;2023-04-19T14:54:20;100062.58;;;11.52;100.00
51526;BME280;37611;51.794;21.590;2023-04-19T14:58:21;100061.98;;;11.58;100.00
51526;BME280;37611;51.794;21.590;2023-04-19T15:02:24;100059.74;;;11.66;100.00
51526;BME280;37611;51.794;21.590;2023-04-19T15:06:25;100055.46;;;11.70;100.00
51526;BME280;37611;51.794;21.590;2023-04-19T15:10:27;100064.11;;;11.71;100.00
51526;BME280;37611;51.794;21.590;2023-04-19T15:14:29;100068.05;;;11.71;100.00
51526;BME280;37611;51.794;21.590;2023-04-19T15:18:31;100069.66;;;11.71;100.00
51526;BME280;37611;51.794;21.590;2023-04-19T15:22:32;100071.27;;;11.75;100.00
51526;BME280;37611;51.794;21.590;2023-04-19T15:26:34;100065.53;;;11.76;100.00
51526;BME280;37611;51.794;21.590;2023-04-19T15:30:36;100067.83;;;11.78;100.00
51526;BME280;37611;51.794;21.590;2023-04-19T15:34:38;100069.13;;;11.77;100.00
51526;BME280;37611;51.794;21.590;2023-04-19T15:38:39;100069.13;;;11.76;100.00
51526;BME280;37611;51.794;21.590;2023-04-19T15:42:41;100073.56;;;11.77;100.00
51526;BME280;37611;51.794;21.590;2023-04-19T15:46:43;100074.79;;;11.77;100.00
51526;BME280;37611;51.794;21.590;2023-04-19T15:50:45;100075.72;;;11.78;100.00
51526;BME280;37611;51.794;21.590;2023-04-19T15:54:46;100079.21;;;11.73;100.00
51526;BME280;37611;51.794;21.590;2023-04-19T15:58:51;100080.77;;;11.68;100.00
51526;BME280;37611;51.794;21.590;2023-04-19T16:02:52;100079.77;;;11.66;100.00
51526;BME280;37611;51.794;21.590;2023-04-19T16:06:54;100082.07;;;11.66;100.00
51526;BME280;37611;51.794;21.590;2023-04-19T16:10:56;100083.99;;;11.68;100.00
51526;BME280;37611;51.794;21.590;2023-04-19T16:14:58;100086.56;;;11.70;100.00
51526;BME280;37611;51.794;21.590;2023-04-19T16:19:00;100086.16;;;11.67;100.00
51526;BME280;37611;51.794;21.590;2023-04-19T16:23:02;100089.79;;;11.62;100.00
51526;BME280;37611;51.794;21.590;2023-04-19T16:27:06;100095.34;;;11.56;100.00
51526;BME280;37611;51.794;21.590;2023-04-19T16:31:07;100095.19;;;11.52;100.00
51526;BME280;37611;51.794;21.590;2023-04-19T16:35:09;100095.88;;;11.51;100.00
51526;BME280;37611;51.794;21.590;2023-04-19T16:39:11;100097.45;;;11.51;100.00
51526;BME280;37611;51.794;21.590;2023-04-19T16:43:13;100105.36;;;11.49;100.00
51526;BME280;37611;51.794;21.590;2023-04-19T16:47:15;100117.02;;;11.45;100.00
51526;BME280;37611;51.794;21.590;2023-04-19T16:51:17;100119.88;;;11.37;100.00
51526;BME280;37611;51.794;21.590;2023-04-19T16:55:19;100125.83;;;11.27;100.00
51526;BME280;37611;51.794;21.590;2023-04-19T16:59:22;100128.08;;;11.20;100.00
51526;BME280;37611;51.794;21.590;2023-04-19T17:03:23;100131.40;;;11.17;100.00
51526;BME280;37611;51.794;21.590;2023-04-19T17:07:26;100135.33;;;11.13;100.00
51526;BME280;37611;51.794;21.590;2023-04-19T17:11:27;100134.69;;;11.12;100.00
51526;BME280;37611;51.794;21.590;2023-04-19T17:15:32;100140.16;;;11.13;98.32
51526;BME280;37611;51.794;21.590;2023-04-19T17:19:35;100150.70;;;11.13;93.83
51526;BME280;37611;51.794;21.590;2023-04-19T17:23:36;100156.19;;;11.09;93.04
51526;BME280;37611;51.794;21.590;2023-04-19T17:27:38;100160.58;;;11.03;91.79
51526;BME280;37611;51.794;21.590;2023-04-19T17:31:40;100165.08;;;10.97;92.31
51526;BME280;37611;51.794;21.590;2023-04-19T17:35:41;100171.77;;;10.89;92.29
51526;BME280;37611;51.794;21.590;2023-04-19T17:39:43;100176.92;;;10.82;92.78
51526;BME280;37611;51.794;21.590;2023-04-19T17:43:45;100178.34;;;10.72;92.87
51526;BME280;37611;51.794;21.590;2023-04-19T17:47:48;100185.32;;;10.56;93.33
51526;BME280;37611;51.794;21.590;2023-04-19T17:51:49;100188.55;;;10.37;93.93
51526;BME280;37611;51.794;21.590;2023-04-19T17:55:51;100190.52;;;10.22;94.65
51526;BME280;37611;51.794;21.590;2023-04-19T17:59:53;100190.92;;;10.08;95.56
51526;BME280;37611;51.794;21.590;2023-04-19T18:03:55;100193.38;;;9.93;96.42
51526;BME280;37611;51.794;21.590;2023-04-19T18:07:56;100197.52;;;9.75;97.63
51526;BME280;37611;51.794;21.590;2023-04-19T18:11:58;100201.94;;;9.61;98.66
51526;BME280;37611;51.794;21.590;2023-04-19T18:16:01;100201.18;;;9.50;99.27
51526;BME280;37611;51.794;21.590;2023-04-19T18:20:04;100205.83;;;9.39;99.98
51526;BME280;37611;51.794;21.590;2023-04-19T18:24:07;100209.98;;;9.36;100.00
51526;BME280;37611;51.794;21.590;2023-04-19T18:28:09;100212.36;;;9.39;100.00
51526;BME280;37611;51.794;21.590;2023-04-19T18:32:11;100210.66;;;9.44;100.00
51526;BME280;37611;51.794;21.590;2023-04-19T18:36:12;100209.86;;;9.49;99.98
51526;BME280;37611;51.794;21.590;2023-04-19T18:40:14;100208.82;;;9.53;100.00
51526;BME280;37611;51.794;21.590;2023-04-19T18:44:16;100202.00;;;9.55;100.00
51526;BME280;37611;51.794;21.590;2023-04-19T18:48:18;100208.38;;;9.54;100.00
51526;BME280;37611;51.794;21.590;2023-04-19T18:52:19;100210.15;;;9.51;100.00
51526;BME280;37611;51.794;21.590;2023-04-19T18:56:21;100212.16;;;9.50;100.00
51526;BME280;37611;51.794;21.590;2023-04-19T19:00:23;100204.68;;;9.48;100.00
51526;BME280;37611;51.794;21.590;2023-04-19T19:04:25;100199.23;;;9.47;100.00
51526;BME280;37611;51.794;21.590;2023-04-19T19:08:27;100196.11;;;9.48;100.00
51526;BME280;37611;51.794;21.590;2023-04-19T19:12:29;100196.84;;;9.54;100.00
51526;BME280;37611;51.794;21.590;2023-04-19T19:16:31;100202.09;;;9.56;100.00
51526;BME280;37611;51.794;21.590;2023-04-19T19:20:32;100214.73;;;9.47;100.00
51526;BME280;37611;51.794;21.590;2023-04-19T19:24:34;100218.90;;;9.42;100.00
51526;BME280;37611;51.794;21.590;2023-04-19T19:28:39;100222.45;;;9.40;100.00
51526;BME280;37611;51.794;21.590;2023-04-19T19:32:41;100224.58;;;9.38;100.00
51526;BME280;37611;51.794;21.590;2023-04-19T19:36:42;100225.54;;;9.34;100.00
51526;BME280;37611;51.794;21.590;2023-04-19T19:40:47;100229.04;;;9.32;100.00
51526;BME280;37611;51.794;21.590;2023-04-19T19:44:54;100225.92;;;9.30;100.00
51526;BME280;37611;51.794;21.590;2023-04-19T19:48:56;100227.52;;;9.31;100.00
51526;BME280;37611;51.794;21.590;2023-04-19T19:52:58;100226.20;;;9.30;100.00
51526;BME280;37611;51.794;21.590;2023-04-19T19:57:04;100226.02;;;9.33;100.00
51526;BME280;37611;51.794;21.590;2023-04-19T20:01:06;100225.53;;;9.36;100.00
51526;BME280;37611;51.794;21.590;2023-04-19T20:05:14;100224.70;;;9.38;100.00
51526;BME280;37611;51.794;21.590;2023-04-19T20:09:16;100226.52;;;9.35;100.00
51526;BME280;37611;51.794;21.590;2023-04-19T20:13:21;100236.73;;;9.38;100.00
51526;BME280;37611;51.794;21.590;2023-04-19T20:17:23;100240.79;;;9.43;100.00
51526;BME280;37611;51.794;21.590;2023-04-19T20:21:24;100240.27;;;9.49;100.00
51526;BME280;37611;51.794;21.590;2023-04-19T20:25:27;100234.30;;;9.53;100.00
51526;BME280;37611;51.794;21.590;2023-04-19T20:29:29;100231.81;;;9.51;100.00
51526;BME280;37611;51.794;21.590;2023-04-19T20:33:30;100231.97;;;9.48;100.00
51526;BME280;37611;51.794;21.590;2023-04-19T20:37:33;100229.20;;;9.46;100.00
51526;BME280;37611;51.794;21.590;2023-04-19T20:41:38;100230.85;;;9.45;100.00
51526;BME280;37611;51.794;21.590;2023-04-19T20:45:40;100229.79;;;9.38;100.00
51526;BME280;37611;51.794;21.590;2023-04-19T20:49:42;100232.03;;;9.20;100.00
51526;BME280;37611;51.794;21.590;2023-04-19T20:53:49;100237.33;;;9.06;100.00
51526;BME280;37611;51.794;21.590;2023-04-19T20:57:51;100240.83;;;8.96;100.00
51526;BME280;37611;51.794;21.590;2023-04-19T21:01:53;100238.61;;;8.88;100.00